LFLL 200200Z 14009KT CAVOK 21/10 Q1023 NOSIG LFLL 200130Z 14008KT CAVOK 21/10 Q1023 NOSIG LFLL 200100Z 15010KT CAVOK 22/10 Q1023 NOSIG LFLL 200030Z 15010KT CAVOK 22/11 Q1023 NOSIG LFLL 200000Z 15011KT CAVOK 23/11 Q1023 NOSIG LFLL 192330Z 15010KT 120V190 CAVOK 23/11 Q1023 NOSIG LFLL 192300Z 14010KT 110V170 CAVOK 23/10 Q1023 NOSIG LFLL 192230Z 15010KT 120V200 CAVOK 23/11 Q1023 NOSIG LFLL 192200Z 16007KT 100V210 CAVOK 24/11 Q1023 NOSIG LFLL 192130Z 16010G20KT 120V200 CAVOK 25/12 Q1023 NOSIG LFLL 192100Z 18013KT CAVOK 25/11 Q1022 NOSIG LFLL 192030Z 19018KT CAVOK 26/11 Q1022 NOSIG LFLL 192000Z 20017KT CAVOK 26/11 Q1021 NOSIG LFLL 191930Z 19016KT CAVOK 26/12 Q1021 NOSIG LFLL 191900Z 18014KT CAVOK 27/12 Q1021 NOSIG LFLL 191830Z 19015KT CAVOK 28/12 Q1021 NOSIG LFLL 191800Z 19017KT CAVOK 29/12 Q1021 NOSIG LFLL 191730Z 20017KT CAVOK 29/12 Q1021 LFLL 191700Z 19015KT CAVOK 29/13 Q1021 LFLL 191630Z 21018KT 170V230 CAVOK 30/12 Q1021 LFLL 191600Z 20018KT CAVOK 30/12 Q1021 LFLL 191530Z 20019KT 170V230 CAVOK 31/12 Q1021 LFLL 191500Z 19017KT 150V210 CAVOK 31/13 Q1021 LFLL 191430Z 20017KT CAVOK 30/12 Q1021 LFLL 191400Z 20018KT CAVOK 31/13 Q1021 LFLL 191330Z 20018KT CAVOK 31/12 Q1021 LFLL 191300Z 19017KT 160V220 CAVOK 30/12 Q1022 LFLL 191230Z 19019KT 160V220 CAVOK 30/12 Q1022 LFLL 191200Z 18011KT 150V220 CAVOK 30/12 Q1022 LFLL 191130Z 17010KT 150V210 9999 SCT100TCU SCT160 29/12 Q1022 LFLL 191100Z 14006KT 110V180 9999 SCT100 SCT150TCU 28/14 Q1022 LFLL 191030Z 18009KT 150V210 9999 FEW100 SCT150TCU 27/13 Q1022 LFLL 191000Z 17012KT 140V200 CAVOK 27/13 Q1023 LFLL 190930Z 16009KT 120V210 CAVOK 27/12 Q1022 LFLL 190900Z 16011KT 130V200 CAVOK 26/13 Q1022 LFLL 190830Z 17009KT 110V220 CAVOK 25/13 Q1023 LFLL 190800Z 14009KT 110V170 CAVOK 24/13 Q1023 LFLL 190730Z 12007KT 100V170 CAVOK 24/13 Q1022 LFLL 190700Z 11004KT 070V150 CAVOK 23/13 Q1023 LFLL 190630Z 11004KT 040V210 CAVOK 23/13 Q1022 LFLL 190600Z 15007KT 110V210 CAVOK 22/13 Q1022 LFLL 190530Z 15007KT 120V180 CAVOK 21/13 Q1022 LFLL 190500Z AUTO 14010KT CAVOK 21/13 Q1021 NOSIG LFLL 190430Z AUTO 14010KT CAVOK 21/13 Q1021 NOSIG LFLL 190400Z AUTO 15008KT CAVOK 21/13 Q1021 NOSIG LFLL 190330Z AUTO 15010KT CAVOK 22/13 Q1020 NOSIG LFLL 190300Z AUTO 15010KT CAVOK 22/13 Q1020 NOSIG LFLL 190230Z AUTO 15006KT CAVOK 22/13 Q1020 NOSIG LFLL 190200Z AUTO 14006KT CAVOK 22/14 Q1020 NOSIG LFLL 190130Z AUTO 16009KT CAVOK 22/14 Q1020 NOSIG LFLL 190100Z AUTO 15009KT CAVOK 22/14 Q1020 NOSIG LFLL 190030Z AUTO 17006KT CAVOK 23/14 Q1020 NOSIG LFLL 190000Z AUTO 19005KT CAVOK 23/15 Q1020 NOSIG LFLL 182330Z AUTO 15006KT CAVOK 23/15 Q1020 NOSIG LFLL 182300Z AUTO 18007KT CAVOK 24/15 Q1020 TEMPO 19015G25KT LFLL 182230Z AUTO 17008KT CAVOK 24/16 Q1019 TEMPO 19015G25KT LFLL 182200Z AUTO 18009KT CAVOK 25/16 Q1019 TEMPO 19015G25KT LFLL 182130Z AUTO 17007KT CAVOK 25/15 Q1019 TEMPO 19015G25KT LFLL 182100Z AUTO 15008KT CAVOK 25/15 Q1019 TEMPO 19015G25KT LFLL 182030Z AUTO 11006KT CAVOK 26/15 Q1019 TEMPO 19015G25KT LFLL 182000Z AUTO 09004KT CAVOK 26/14 Q1019 TEMPO 19015G25KT LFLL 181930Z AUTO 09004KT CAVOK 27/15 Q1018 TEMPO 19015G25KT LFLL 181900Z AUTO 08003KT 020V100 9999 ////// 28/14 Q1018 LFLL 181700Z VRB03KT CAVOK 30/12 Q1017 LFLL 181630Z 34005KT 310V010 CAVOK 31/12 Q1017 LFLL 181610Z 32004KT 270V360 CAVOK 31/12 Q1017 LFLL 181530Z 29004KT 190V340 CAVOK 31/12 Q1018 LFLL 181500Z 28006KT 240V320 CAVOK 31/12 Q1018 LFLL 181430Z 30004KT 230V020 CAVOK 31/12 Q1018

METAR Messwerte "LYON/SATOLAS" LFLL

Zurück zur Übersicht

Ortsname
Ländercode / m ü. NN
Zeit Temperatur Taupunkt Rel.
Luftfeuchte
Luftdruck:
Altimeter
NN
Station
Wind in Beaufort
(Knoten)
Sichtweite
(Meter)
Wolken
(Meter über Grund)
Wettererscheinung
LYON/SATOLAS
FR 234
Fr 20.05. 04:00211049 %1023
1022
995
SO 3 (9)>= 10000Nicht signifikant 
LYON/SATOLAS
FR 234
Fr 20.05. 03:30211049 %1023
1022
995
SO 3 (8)>= 10000Nicht signifikant 
LYON/SATOLAS
FR 234
Fr 20.05. 03:00221046 %1023
1022
995
SSO 3 (10)>= 10000Nicht signifikant 
LYON/SATOLAS
FR 234
Fr 20.05. 02:30221150 %1023
1022
995
SSO 3 (10)>= 10000Nicht signifikant 
LYON/SATOLAS
FR 234
Fr 20.05. 02:00231147 %1023
1022
995
SSO 4 (11)>= 10000Nicht signifikant 
LYON/SATOLAS
FR 234
Fr 20.05. 01:30231147 %1023
1022
995
SSO 3 (10)
OSO - S
>= 10000Nicht signifikant 
LYON/SATOLAS
FR 234
Fr 20.05. 01:00231044 %1023
1022
995
SO 3 (10)
OSO - S
>= 10000Nicht signifikant 
LYON/SATOLAS
FR 234
Fr 20.05. 00:30231147 %1023
1022
995
SSO 3 (10)
OSO - SSW
>= 10000Nicht signifikant 
LYON/SATOLAS
FR 234
Fr 20.05. 00:00241144 %1023
1022
995
SSO 3 (7)
O - SSW
>= 10000Nicht signifikant 
LYON/SATOLAS
FR 234
Do 19.05. 23:30251244 %1023
1022
995
SSO 3 (10) - 5 (20)
OSO - SSW
>= 10000Nicht signifikant 
LYON/SATOLAS
FR 234
Do 19.05. 23:00251141 %1022
1021
994
S 4 (13)>= 10000Nicht signifikant 
LYON/SATOLAS
FR 234
Do 19.05. 22:30261139 %1022
1021
994
S 5 (18)>= 10000Nicht signifikant 
LYON/SATOLAS
FR 234
Do 19.05. 22:00261139 %1021
1020
993
SSW 5 (17)>= 10000Nicht signifikant 
LYON/SATOLAS
FR 234
Do 19.05. 21:30261242 %1021
1020
993
S 5 (16)>= 10000Nicht signifikant 
LYON/SATOLAS
FR 234
Do 19.05. 21:00271239 %1021
1020
993
S 4 (14)>= 10000Nicht signifikant 
LYON/SATOLAS
FR 234
Do 19.05. 20:30281237 %1021
1020
993
S 4 (15)>= 10000Nicht signifikant 
LYON/SATOLAS
FR 234
Do 19.05. 20:00291235 %1021
1020
993
S 5 (17)>= 10000Nicht signifikant 
LYON/SATOLAS
FR 234
Do 19.05. 19:30291235 %1021
1020
993
SSW 5 (17)>= 10000Nicht signifikant 
LYON/SATOLAS
FR 234
Do 19.05. 19:00291337 %1021
1020
993
S 4 (15)>= 10000Nicht signifikant 
LYON/SATOLAS
FR 234
Do 19.05. 18:30301233 %1021
1020
993
SSW 5 (18)
S - SW
>= 10000Nicht signifikant 
LYON/SATOLAS
FR 234
Do 19.05. 18:00301233 %1021
1020
993
SSW 5 (18)>= 10000Nicht signifikant 
LYON/SATOLAS
FR 234
Do 19.05. 17:30311231 %1021
1020
993
SSW 5 (19)
S - SW
>= 10000Nicht signifikant 
LYON/SATOLAS
FR 234
Do 19.05. 17:00311333 %1021
1020
993
S 5 (17)
SSO - SSW
>= 10000Nicht signifikant 
LYON/SATOLAS
FR 234
Do 19.05. 16:30301233 %1021
1020
993
SSW 5 (17)>= 10000Nicht signifikant 
LYON/SATOLAS
FR 234
Do 19.05. 16:00311333 %1021
1020
993
SSW 5 (18)>= 10000Nicht signifikant 
LYON/SATOLAS
FR 234
Do 19.05. 15:30311231 %1021
1020
993
SSW 5 (18)>= 10000Nicht signifikant 
LYON/SATOLAS
FR 234
Do 19.05. 15:00301233 %1022
1021
994
S 5 (17)
SSO - SW
>= 10000Nicht signifikant 
LYON/SATOLAS
FR 234
Do 19.05. 14:30301233 %1022
1021
994
S 5 (19)
SSO - SW
>= 10000Nicht signifikant 
LYON/SATOLAS
FR 234
Do 19.05. 14:00301233 %1022
1021
994
S 4 (11)
SSO - SW
>= 10000Nicht signifikant 
LYON/SATOLAS
FR 234
Do 19.05. 13:30291235 %1022
1021
994
S 3 (10)
SSO - SSW
>= 10000Wolkig (4900)
Wolkig (3000)
 
LYON/SATOLAS
FR 234
Do 19.05. 13:00281442 %1022
1021
994
SO 2 (6)
OSO - S
>= 10000Wolkig (4600)
Wolkig (3000)
 
LYON/SATOLAS
FR 234
Do 19.05. 12:30271342 %1022
1021
994
S 3 (9)
SSO - SSW
>= 10000Wolkig (4600)
Leicht bewölkt (3000)
 
LYON/SATOLAS
FR 234
Do 19.05. 12:00271342 %1023
1022
995
S 4 (12)
SO - SSW
>= 10000Nicht signifikant 
LYON/SATOLAS
FR 234
Do 19.05. 11:30271239 %1022
1021
994
SSO 3 (9)
OSO - SSW
>= 10000Nicht signifikant 
LYON/SATOLAS
FR 234
Do 19.05. 11:00261345 %1022
1021
994
SSO 4 (11)
SO - SSW
>= 10000Nicht signifikant 
LYON/SATOLAS
FR 234
Do 19.05. 10:30251347 %1023
1022
995
S 3 (9)
OSO - SW
>= 10000Nicht signifikant 
LYON/SATOLAS
FR 234
Do 19.05. 10:00241350 %1023
1022
995
SO 3 (9)
OSO - S
>= 10000Nicht signifikant 
LYON/SATOLAS
FR 234
Do 19.05. 09:30241350 %1022
1021
994
OSO 3 (7)
O - S
>= 10000Nicht signifikant 
LYON/SATOLAS
FR 234
Do 19.05. 09:00231353 %1023
1022
995
OSO 2 (4)
ONO - SSO
>= 10000Nicht signifikant 
LYON/SATOLAS
FR 234
Do 19.05. 08:30231353 %1022
1021
994
OSO 2 (4)
NO - SSW
>= 10000Nicht signifikant 
LYON/SATOLAS
FR 234
Do 19.05. 08:00221357 %1022
1021
994
SSO 3 (7)
OSO - SSW
>= 10000Nicht signifikant 
LYON/SATOLAS
FR 234
Do 19.05. 07:30211360 %1022
1021
994
SSO 3 (7)
OSO - S
>= 10000Nicht signifikant 
LYON/SATOLAS
FR 234
Do 19.05. 07:00211360 %1021
1020
993
SO 3 (10)>= 10000Nicht signifikant 
LYON/SATOLAS
FR 234
Do 19.05. 06:30211360 %1021
1020
993
SO 3 (10)>= 10000Nicht signifikant 
LYON/SATOLAS
FR 234
Do 19.05. 06:00211360 %1021
1020
993
SSO 3 (8)>= 10000Nicht signifikant 
LYON/SATOLAS
FR 234
Do 19.05. 05:30221357 %1020
1019
992
SSO 3 (10)>= 10000Nicht signifikant 
LYON/SATOLAS
FR 234
Do 19.05. 05:00221357 %1020
1019
992
SSO 3 (10)>= 10000Nicht signifikant 
LYON/SATOLAS
FR 234
Do 19.05. 04:30221357 %1020
1019
992
SSO 2 (6)>= 10000Nicht signifikant 
LYON/SATOLAS
FR 234
Do 19.05. 04:00221460 %1020
1019
992
SO 2 (6)>= 10000Nicht signifikant 
LYON/SATOLAS
FR 234
Do 19.05. 03:30221460 %1020
1019
992
SSO 3 (9)>= 10000Nicht signifikant 
LYON/SATOLAS
FR 234
Do 19.05. 03:00221460 %1020
1019
992
SSO 3 (9)>= 10000Nicht signifikant 
LYON/SATOLAS
FR 234
Do 19.05. 02:30231457 %1020
1019
992
S 2 (6)>= 10000Nicht signifikant 
LYON/SATOLAS
FR 234
Do 19.05. 02:00231561 %1020
1019
992
S 2 (5)>= 10000Nicht signifikant 
LYON/SATOLAS
FR 234
Do 19.05. 01:30231561 %1020
1019
992
SSO 2 (6)>= 10000Nicht signifikant 
LYON/SATOLAS
FR 234
Do 19.05. 01:00241557 %1020
1019
992
S 3 (7)
Bald zeitweise:
S 4 (15) - 6 (25)
>= 10000Nicht signifikant 
LYON/SATOLAS
FR 234
Do 19.05. 00:30241661 %1019
1018
991
S 3 (8)
Bald zeitweise:
S 4 (15) - 6 (25)
>= 10000Nicht signifikant 
LYON/SATOLAS
FR 234
Do 19.05. 00:00251657 %1019
1018
991
S 3 (9)
Bald zeitweise:
S 4 (15) - 6 (25)
>= 10000Nicht signifikant 
LYON/SATOLAS
FR 234
Mi 18.05. 23:30251554 %1019
1018
991
S 3 (7)
Bald zeitweise:
S 4 (15) - 6 (25)
>= 10000Nicht signifikant 
LYON/SATOLAS
FR 234
Mi 18.05. 23:00251554 %1019
1018
991
SSO 3 (8)
Bald zeitweise:
S 4 (15) - 6 (25)
>= 10000Nicht signifikant 
LYON/SATOLAS
FR 234
Mi 18.05. 22:30261551 %1019
1018
991
OSO 2 (6)
Bald zeitweise:
S 4 (15) - 6 (25)
>= 10000Nicht signifikant 
LYON/SATOLAS
FR 234
Mi 18.05. 22:00261448 %1019
1018
991
O 2 (4)
Bald zeitweise:
S 4 (15) - 6 (25)
>= 10000Nicht signifikant 
LYON/SATOLAS
FR 234
Mi 18.05. 21:30271548 %1018
1017
990
O 2 (4)
Bald zeitweise:
S 4 (15) - 6 (25)
>= 10000Nicht signifikant 
LYON/SATOLAS
FR 234
Mi 18.05. 21:00281442 %1018
1017
990
O 2 (3)
NNO - O
>= 10000  
LYON/SATOLAS
FR 234
Mi 18.05. 19:00301233 %1017
1016
989
Uml 2 (3)>= 10000Nicht signifikant 
LYON/SATOLAS
FR 234
Mi 18.05. 18:30311231 %1017
1016
989
NNW 2 (5)
NW - N
>= 10000Nicht signifikant 
LYON/SATOLAS
FR 234
Mi 18.05. 18:10311231 %1017
1016
989
NW 2 (4)
W - N
>= 10000Nicht signifikant 
LYON/SATOLAS
FR 234
Mi 18.05. 17:30311231 %1018
1017
990
WNW 2 (4)
S - NNW
>= 10000Nicht signifikant 
LYON/SATOLAS
FR 234
Mi 18.05. 17:00311231 %1018
1017
990
W 2 (6)
WSW - NW
>= 10000Nicht signifikant 
LYON/SATOLAS
FR 234
Mi 18.05. 16:30311231 %1018
1017
990
WNW 2 (4)
SW - NNO
>= 10000Nicht signifikant 

Altimeter: Einstellung am Altimeter (Höhenmesser), die Höhe 0 muss auf diesen Luftdruckwert zeigen, damit das Gerät die Stationshöhe richtig anzeigt.

NN: Luftdruck reduziert auf "Normal Null", auf Meereshöhe, dieser von der Temperatur abhängige Wert wird bisweilen unkorrekt einfach als "Luftdruck" bezeichnet. Eigentlich nur eine fiktive Größe, die es erlaubt, Stationen auf unterschiedlichen Höhen miteinander zu vergleichen.

Station: Realer Luftdruck an der Station.